createdAt,value
2023-05-25T00:01:54.879Z,4.50
2023-05-25T00:04:27.348Z,5.20
2023-05-25T00:06:55.182Z,4.90
2023-05-25T00:09:22.784Z,5.10
2023-05-25T00:11:50.374Z,5.30
2023-05-25T00:14:18.214Z,5.10
2023-05-25T00:16:49.091Z,4.40
2023-05-25T00:19:18.733Z,4.60
2023-05-25T00:21:48.824Z,5.40
2023-05-25T00:24:16.645Z,5.50
2023-05-25T00:26:44.191Z,5.40
2023-05-25T00:29:12.725Z,6.10
2023-05-25T00:31:40.577Z,6.00
2023-05-25T00:34:08.877Z,6.50
2023-05-25T00:36:36.419Z,7.00
2023-05-25T00:39:04.366Z,7.80
2023-05-25T00:41:32.152Z,7.10
2023-05-25T00:43:59.750Z,6.30
2023-05-25T00:46:27.444Z,6.20
2023-05-25T00:48:56.583Z,7.20
2023-05-25T00:51:24.206Z,7.40
2023-05-25T00:53:52.401Z,7.10
2023-05-25T00:56:28.336Z,7.60
2023-05-25T00:58:57.256Z,6.90
2023-05-25T01:01:26.540Z,7.80
2023-05-25T01:03:54.513Z,7.60
2023-05-25T01:06:22.902Z,6.60
2023-05-25T01:08:54.162Z,6.50
2023-05-25T01:11:23.286Z,7.10
2023-05-25T01:13:53.372Z,6.90
2023-05-25T01:16:21.178Z,6.90
2023-05-25T01:18:48.851Z,7.70
2023-05-25T01:21:27.182Z,7.10
2023-05-25T01:24:12.231Z,7.40
2023-05-25T01:26:47.633Z,7.00
2023-05-25T01:29:15.868Z,7.30
2023-05-25T01:31:43.737Z,7.20
2023-05-25T01:34:11.625Z,7.20
2023-05-25T01:36:42.169Z,6.70
2023-05-25T01:39:11.347Z,7.00
2023-05-25T01:41:39.133Z,7.20
2023-05-25T01:44:07.827Z,7.30
2023-05-25T01:46:39.805Z,7.70
2023-05-25T01:49:42.323Z,7.40
2023-05-25T01:52:18.621Z,7.40
2023-05-25T01:54:48.609Z,6.80
2023-05-25T01:59:46.802Z,7.40
2023-05-25T02:02:16.635Z,8.00
2023-05-25T02:04:44.503Z,8.20
2023-05-25T02:07:12.107Z,7.70
2023-05-25T02:09:40.231Z,8.00
2023-05-25T02:12:08.350Z,8.00
2023-05-25T02:14:35.901Z,8.00
2023-05-25T02:17:04.284Z,7.20
2023-05-25T02:19:31.839Z,6.80
2023-05-25T02:21:59.399Z,7.40
2023-05-25T02:24:27.336Z,7.60
2023-05-25T02:26:54.887Z,8.00
2023-05-25T02:29:23.140Z,8.00
2023-05-25T02:31:50.768Z,8.20
2023-05-25T02:34:18.329Z,9.10
2023-05-25T02:36:46.736Z,8.90
2023-05-25T02:39:14.375Z,8.90
2023-05-25T02:41:43.342Z,8.20
2023-05-25T02:44:11.101Z,9.10
2023-05-25T02:46:38.656Z,9.50
2023-05-25T02:49:07.114Z,9.30
2023-05-25T02:51:36.183Z,8.80
2023-05-25T02:54:03.808Z,9.80
2023-05-25T02:56:31.989Z,9.80
2023-05-25T02:59:00.274Z,10.20
2023-05-25T03:01:35.179Z,10.20
2023-05-25T03:04:03.238Z,10.20
2023-05-25T03:06:36.644Z,10.60
2023-05-25T03:09:16.894Z,11.20
2023-05-25T03:11:45.846Z,11.20
2023-05-25T03:14:16.182Z,10.90
2023-05-25T03:16:47.111Z,10.50
2023-05-25T03:19:15.540Z,10.80
2023-05-25T03:21:43.470Z,10.20
2023-05-25T03:24:11.048Z,10.40
2023-05-25T03:26:39.232Z,9.70
2023-05-25T03:29:07.503Z,9.60
2023-05-25T03:31:35.363Z,10.40
2023-05-25T03:34:04.466Z,9.90
2023-05-25T03:36:34.219Z,9.10
2023-05-25T03:39:02.065Z,9.60
2023-05-25T03:41:29.912Z,10.40
2023-05-25T03:43:57.984Z,9.90
2023-05-25T03:46:26.093Z,10.10
2023-05-25T03:48:56.994Z,9.50
2023-05-25T03:51:24.767Z,10.90
2023-05-25T03:53:52.425Z,10.60
2023-05-25T03:56:20.192Z,10.50
2023-05-25T03:58:47.960Z,10.90
2023-05-25T04:01:16.950Z,9.90
2023-05-25T04:03:45.084Z,10.40
2023-05-25T04:06:12.997Z,10.50
2023-05-25T04:08:42.246Z,10.70
2023-05-25T04:11:09.965Z,10.00
2023-05-25T04:13:40.492Z,9.60
2023-05-25T04:16:10.547Z,9.50
2023-05-25T04:18:38.485Z,9.70
2023-05-25T04:21:06.460Z,9.90
2023-05-25T04:23:34.249Z,9.70
2023-05-25T04:26:02.201Z,9.30
2023-05-25T04:28:30.065Z,8.50
2023-05-25T04:31:19.712Z,8.60
2023-05-25T04:33:52.520Z,8.50
2023-05-25T04:36:32.850Z,8.70
2023-05-25T04:39:03.301Z,8.80
2023-05-25T04:41:31.716Z,8.20
2023-05-25T04:44:09.885Z,8.20
2023-05-25T04:46:46.579Z,8.80
2023-05-25T04:49:29.359Z,8.10
2023-05-25T04:51:56.920Z,7.50
2023-05-25T04:54:25.669Z,7.60
2023-05-25T04:56:53.548Z,7.50
2023-05-25T04:59:21.346Z,6.60
2023-05-25T05:01:49.039Z,5.90
2023-05-25T05:04:18.443Z,6.70
2023-05-25T05:06:46.392Z,6.40
2023-05-25T05:09:19.187Z,6.30
2023-05-25T05:11:47.227Z,6.70
2023-05-25T05:14:14.965Z,6.50
2023-05-25T05:16:44.668Z,6.10
2023-05-25T05:19:12.622Z,6.30
2023-05-25T05:21:41.649Z,6.20
2023-05-25T05:24:09.353Z,6.00
2023-05-25T05:26:55.441Z,6.00
2023-05-25T05:29:28.984Z,5.90
2023-05-25T05:31:56.864Z,5.50
2023-05-25T05:34:24.869Z,6.30
2023-05-25T05:36:57.161Z,5.60
2023-05-25T05:39:27.407Z,5.40
2023-05-25T05:41:55.116Z,5.60
2023-05-25T05:44:25.251Z,5.70
2023-05-25T05:47:01.333Z,5.40
2023-05-25T05:49:30.557Z,5.90
2023-05-25T05:51:58.519Z,6.20
2023-05-25T05:54:28.229Z,6.40
2023-05-25T05:56:57.176Z,5.40
2023-05-25T05:59:24.708Z,5.30
2023-05-25T06:01:52.419Z,5.20
2023-05-25T06:04:20.267Z,5.00
2023-05-25T06:06:47.821Z,5.30
2023-05-25T06:09:15.451Z,4.70
2023-05-25T06:11:43.128Z,5.10
2023-05-25T06:14:11.542Z,4.30
2023-05-25T06:16:39.191Z,4.90
2023-05-25T06:19:06.949Z,4.70
2023-05-25T06:21:34.522Z,4.30
2023-05-25T06:24:02.092Z,4.50
2023-05-25T06:26:33.482Z,4.80
2023-05-25T06:29:01.063Z,3.90
2023-05-25T06:31:28.696Z,4.30
2023-05-25T06:33:56.299Z,4.40
2023-05-25T06:36:23.877Z,4.40
2023-05-25T06:41:21.894Z,4.80
2023-05-25T06:43:49.715Z,4.40
2023-05-25T06:46:26.801Z,4.20
2023-05-25T06:48:54.400Z,4.70
2023-05-25T06:51:22.259Z,4.70
2023-05-25T06:53:50.458Z,4.20
2023-05-25T06:56:18.190Z,4.50
2023-05-25T06:58:46.498Z,11.00
2023-05-25T07:01:14.210Z,6.10
2023-05-25T07:03:42.328Z,4.40
2023-05-25T07:06:11.648Z,4.70
2023-05-25T07:08:39.231Z,4.30
2023-05-25T07:11:10.617Z,4.30
2023-05-25T07:13:38.217Z,4.80
2023-05-25T07:16:06.331Z,4.50
2023-05-25T07:18:34.033Z,3.90
2023-05-25T07:21:01.641Z,4.20
2023-05-25T07:23:29.220Z,4.30
2023-05-25T07:25:57.069Z,4.10
2023-05-25T07:28:24.699Z,5.00
2023-05-25T07:30:52.322Z,3.60
2023-05-25T07:33:19.860Z,4.00
2023-05-25T07:35:47.423Z,3.80
2023-05-25T07:38:15.083Z,3.90
2023-05-25T07:40:42.686Z,3.80
2023-05-25T07:43:10.226Z,3.90
2023-05-25T07:45:37.794Z,4.00
2023-05-25T07:48:07.309Z,3.80
2023-05-25T07:50:35.368Z,3.80
2023-05-25T07:53:03.102Z,3.30
2023-05-25T07:55:30.868Z,3.40
2023-05-25T07:57:58.532Z,4.50
2023-05-25T08:00:26.196Z,3.50
2023-05-25T08:02:53.866Z,3.10
2023-05-25T08:05:21.690Z,3.50
2023-05-25T08:07:49.541Z,3.40
2023-05-25T08:10:17.262Z,3.70
2023-05-25T08:12:49.666Z,3.40
2023-05-25T08:15:17.976Z,3.50
2023-05-25T08:17:45.936Z,3.30
2023-05-25T08:20:14.365Z,3.50
2023-05-25T08:22:42.825Z,3.30
2023-05-25T08:25:11.315Z,3.50
2023-05-25T08:27:38.996Z,3.20
2023-05-25T08:30:07.663Z,3.40
2023-05-25T08:32:35.775Z,3.00
2023-05-25T08:35:03.718Z,3.30
2023-05-25T08:37:34.594Z,3.00
2023-05-25T08:40:02.800Z,3.40
2023-05-25T08:42:30.604Z,3.60
2023-05-25T08:44:59.048Z,3.20
2023-05-25T08:47:26.902Z,3.50
2023-05-25T08:49:54.584Z,3.50
2023-05-25T08:52:23.620Z,3.60
2023-05-25T08:54:51.650Z,3.70
2023-05-25T08:57:54.631Z,3.60
2023-05-25T09:00:25.845Z,3.20
2023-05-25T09:02:56.588Z,3.30
2023-05-25T09:05:24.455Z,2.80
2023-05-25T09:07:54.243Z,2.90
2023-05-25T09:10:22.241Z,3.60
2023-05-25T09:12:50.020Z,3.30
2023-05-25T09:15:17.599Z,3.30
2023-05-25T09:17:45.172Z,3.30
2023-05-25T09:20:14.303Z,3.10
2023-05-25T09:22:42.428Z,2.90
2023-05-25T09:25:10.947Z,3.00
2023-05-25T09:27:38.657Z,3.20
2023-05-25T09:30:06.896Z,3.00
2023-05-25T09:32:35.264Z,2.70
2023-05-25T09:35:10.122Z,3.30
2023-05-25T09:37:37.901Z,2.80
2023-05-25T09:40:06.670Z,2.90
2023-05-25T09:42:34.286Z,2.80
2023-05-25T09:45:02.555Z,3.00
2023-05-25T09:47:30.218Z,3.20
2023-05-25T09:49:58.057Z,3.50
2023-05-25T09:52:26.072Z,2.90
2023-05-25T09:54:53.820Z,3.20
2023-05-25T09:57:21.470Z,3.00
2023-05-25T09:59:49.213Z,3.10
2023-05-25T10:02:16.925Z,3.10
2023-05-25T10:04:44.691Z,3.70
2023-05-25T10:07:12.375Z,3.30
2023-05-25T10:09:41.752Z,3.10
2023-05-25T10:12:09.416Z,3.10
2023-05-25T10:14:38.272Z,2.90
2023-05-25T10:17:07.190Z,3.20
2023-05-25T10:19:42.030Z,3.60
2023-05-25T10:22:26.124Z,3.10
2023-05-25T10:25:23.223Z,3.20
2023-05-25T10:27:57.490Z,3.20
2023-05-25T10:30:27.495Z,2.80
2023-05-25T10:32:56.197Z,3.00
2023-05-25T10:35:24.375Z,3.70
2023-05-25T10:37:53.887Z,3.80
2023-05-25T10:40:22.723Z,3.30
2023-05-25T10:42:51.821Z,3.50
2023-05-25T10:45:19.530Z,7.20
2023-05-25T10:47:47.344Z,3.70
2023-05-25T10:50:27.663Z,3.50
2023-05-25T10:53:09.354Z,2.80
2023-05-25T10:55:52.288Z,3.60
2023-05-25T10:58:21.184Z,3.40
2023-05-25T11:00:59.210Z,3.10
2023-05-25T11:03:48.446Z,3.30
2023-05-25T11:06:23.777Z,3.80
2023-05-25T11:08:55.870Z,3.20
2023-05-25T11:11:43.796Z,3.20
2023-05-25T11:14:28.018Z,3.20
2023-05-25T11:17:11.808Z,3.20
2023-05-25T11:19:52.706Z,3.10
2023-05-25T11:22:23.320Z,3.10
2023-05-25T11:24:52.557Z,3.50
2023-05-25T11:27:24.246Z,2.90
2023-05-25T11:29:52.372Z,3.50
2023-05-25T11:32:20.211Z,3.00
2023-05-25T11:34:47.993Z,3.40
2023-05-25T11:37:22.505Z,3.00
2023-05-25T11:39:51.680Z,3.10
2023-05-25T11:42:23.551Z,2.70
2023-05-25T11:44:51.539Z,2.70
2023-05-25T11:47:23.225Z,3.10
2023-05-25T11:49:51.238Z,3.10
2023-05-25T11:52:19.916Z,2.90
2023-05-25T11:54:47.556Z,2.90
2023-05-25T11:57:16.190Z,2.90
2023-05-25T11:59:51.315Z,2.80
2023-05-25T12:02:19.470Z,3.20
2023-05-25T12:04:54.566Z,3.00
2023-05-25T12:07:22.183Z,2.70
2023-05-25T12:09:49.772Z,2.80
2023-05-25T12:12:17.370Z,7.90
2023-05-25T12:14:51.335Z,2.60
2023-05-25T12:17:21.223Z,2.60
2023-05-25T12:19:48.920Z,3.00
2023-05-25T12:22:16.543Z,3.10
2023-05-25T12:24:44.243Z,2.90
2023-05-25T12:27:19.654Z,3.00
2023-05-25T12:29:47.874Z,4.00
2023-05-25T12:32:16.176Z,2.90
2023-05-25T12:34:43.749Z,3.00
2023-05-25T12:37:21.403Z,3.00
2023-05-25T12:39:50.815Z,3.20
2023-05-25T12:44:49.040Z,3.00
2023-05-25T12:47:21.406Z,3.10
2023-05-25T12:49:53.219Z,3.10
2023-05-25T12:52:37.557Z,3.00
2023-05-25T12:55:28.025Z,2.90
2023-05-25T12:58:28.045Z,2.70
2023-05-25T13:00:55.619Z,2.90
2023-05-25T13:03:23.181Z,2.70
2023-05-25T13:05:52.228Z,2.70
2023-05-25T13:08:20.230Z,3.00
2023-05-25T13:10:48.719Z,3.10
2023-05-25T13:13:16.468Z,3.10
2023-05-25T13:15:44.577Z,2.80
2023-05-25T13:18:12.190Z,3.40
2023-05-25T13:20:39.853Z,3.00
2023-05-25T13:23:07.785Z,3.00
2023-05-25T13:25:36.323Z,2.70
2023-05-25T13:28:05.838Z,3.00
2023-05-25T13:30:33.932Z,3.20
2023-05-25T13:33:01.457Z,3.20
2023-05-25T13:35:42.296Z,3.10
2023-05-25T13:38:10.769Z,2.90
2023-05-25T13:40:38.549Z,3.10
2023-05-25T13:43:06.215Z,3.30
2023-05-25T13:45:34.200Z,3.70
2023-05-25T13:48:02.086Z,3.60
2023-05-25T13:50:30.021Z,4.00
2023-05-25T13:52:57.926Z,3.70
2023-05-25T13:55:25.493Z,3.50
2023-05-25T13:57:53.926Z,3.80
2023-05-25T14:00:21.646Z,3.80
2023-05-25T14:02:49.317Z,3.80
2023-05-25T14:05:18.539Z,3.70
2023-05-25T14:07:47.511Z,4.10
2023-05-25T14:10:15.118Z,4.10
2023-05-25T14:12:42.694Z,4.20
2023-05-25T14:15:10.794Z,3.80
2023-05-25T14:17:38.663Z,4.20
2023-05-25T14:20:07.484Z,4.00
2023-05-25T14:22:35.097Z,3.90
2023-05-25T14:25:02.690Z,4.00
2023-05-25T14:27:30.382Z,3.10
2023-05-25T14:29:57.972Z,3.50
2023-05-25T14:32:25.623Z,3.20
2023-05-25T14:34:53.199Z,3.90
2023-05-25T14:37:21.092Z,3.70
2023-05-25T14:39:48.658Z,3.80
2023-05-25T14:42:16.497Z,4.20
2023-05-25T14:44:44.185Z,5.90
2023-05-25T14:47:11.830Z,6.40
2023-05-25T14:49:39.496Z,4.80
2023-05-25T14:52:07.117Z,4.20
2023-05-25T14:54:36.168Z,4.60
2023-05-25T14:57:03.938Z,4.10
2023-05-25T14:59:31.664Z,4.20
2023-05-25T15:01:59.528Z,4.10
2023-05-25T15:04:30.043Z,3.70
2023-05-25T15:06:58.521Z,3.70
2023-05-25T15:09:26.114Z,4.10
2023-05-25T15:11:53.681Z,3.90
2023-05-25T15:14:21.394Z,4.20
2023-05-25T15:16:49.454Z,4.10
2023-05-25T15:19:24.579Z,3.70
2023-05-25T15:21:52.121Z,4.30
2023-05-25T15:24:19.677Z,4.00
2023-05-25T15:26:47.222Z,4.00
2023-05-25T15:29:14.745Z,4.00
2023-05-25T15:31:42.376Z,4.10
2023-05-25T15:34:11.324Z,4.00
2023-05-25T15:36:38.901Z,3.80
2023-05-25T15:39:09.002Z,3.70
2023-05-25T15:41:36.830Z,3.70
2023-05-25T15:44:08.381Z,3.90
2023-05-25T15:46:36.180Z,4.30
2023-05-25T15:49:10.881Z,4.00
2023-05-25T15:51:41.669Z,4.10
2023-05-25T15:54:13.502Z,4.40
2023-05-25T15:56:42.165Z,5.00
2023-05-25T15:59:09.753Z,4.90
2023-05-25T16:01:37.322Z,4.40
2023-05-25T16:04:05.216Z,5.20
2023-05-25T16:06:32.951Z,4.90
2023-05-25T16:09:01.213Z,4.50
2023-05-25T16:11:29.586Z,4.10
2023-05-25T16:13:57.240Z,4.50
2023-05-25T16:16:24.802Z,4.60
2023-05-25T16:18:52.606Z,4.40
2023-05-25T16:21:20.335Z,4.00
2023-05-25T16:23:47.889Z,5.50
2023-05-25T16:26:15.643Z,4.50
2023-05-25T16:28:43.226Z,4.00
2023-05-25T16:31:12.385Z,4.10
2023-05-25T16:33:42.007Z,4.50
2023-05-25T16:36:09.741Z,4.30
2023-05-25T16:38:37.290Z,3.60
2023-05-25T16:41:05.034Z,3.60
2023-05-25T16:43:32.587Z,3.90
2023-05-25T16:46:00.220Z,3.80
2023-05-25T16:48:30.286Z,4.10
2023-05-25T16:50:58.234Z,3.80
2023-05-25T16:53:25.836Z,4.30
2023-05-25T16:55:53.365Z,4.30
2023-05-25T16:58:21.086Z,3.80
2023-05-25T17:00:48.746Z,4.10
2023-05-25T17:03:16.381Z,3.90
2023-05-25T17:05:44.428Z,4.60
2023-05-25T17:08:12.216Z,4.30
2023-05-25T17:10:40.078Z,4.90
2023-05-25T17:13:07.747Z,5.20
2023-05-25T17:15:35.473Z,5.10
2023-05-25T17:18:03.166Z,4.80
2023-05-25T17:20:30.903Z,5.20
2023-05-25T17:22:58.481Z,5.30
2023-05-25T17:25:26.070Z,4.90
2023-05-25T17:27:53.618Z,5.10
2023-05-25T17:30:21.776Z,4.70
2023-05-25T17:32:49.610Z,5.20
2023-05-25T17:35:17.218Z,4.80
2023-05-25T17:37:44.797Z,5.00
2023-05-25T17:40:13.028Z,4.60
2023-05-25T17:42:40.617Z,5.30
2023-05-25T17:45:11.609Z,4.80
2023-05-25T17:47:39.346Z,5.10
2023-05-25T17:50:07.704Z,4.90
2023-05-25T17:52:35.474Z,4.20
2023-05-25T17:55:03.227Z,4.50
2023-05-25T17:57:31.374Z,4.60
2023-05-25T17:59:58.978Z,5.30
2023-05-25T18:02:29.216Z,4.70
2023-05-25T18:04:57.217Z,4.90
2023-05-25T18:07:25.355Z,4.90
2023-05-25T18:09:52.916Z,4.90
2023-05-25T18:12:20.769Z,5.30
2023-05-25T18:14:48.372Z,5.00
2023-05-25T18:17:15.997Z,5.30
2023-05-25T18:19:43.508Z,5.10
2023-05-25T18:22:11.110Z,5.60
2023-05-25T18:24:38.660Z,5.20
2023-05-25T18:27:06.501Z,4.80
2023-05-25T18:29:34.280Z,5.00
2023-05-25T18:32:01.991Z,5.30
2023-05-25T18:34:30.464Z,4.80
2023-05-25T18:36:58.232Z,5.20
2023-05-25T18:39:26.553Z,5.20
2023-05-25T18:41:55.833Z,5.50
2023-05-25T18:44:23.373Z,4.80
2023-05-25T18:46:52.591Z,4.90
2023-05-25T18:49:20.294Z,5.30
2023-05-25T18:51:47.960Z,5.50
2023-05-25T18:54:15.875Z,5.50
2023-05-25T18:59:03.891Z,6.20
2023-05-25T19:01:31.521Z,6.80
2023-05-25T19:03:59.186Z,6.50
2023-05-25T19:06:27.467Z,6.10
2023-05-25T19:08:55.498Z,6.20
2023-05-25T19:11:23.173Z,7.00
2023-05-25T19:13:50.716Z,7.40
2023-05-25T19:16:18.323Z,8.00
2023-05-25T19:18:47.203Z,8.20
2023-05-25T19:21:14.722Z,7.10
2023-05-25T19:23:42.343Z,6.50
2023-05-25T19:26:09.882Z,7.20
2023-05-25T19:28:37.594Z,8.40
2023-05-25T19:31:05.213Z,9.00
2023-05-25T19:33:32.873Z,8.90
2023-05-25T19:36:00.396Z,8.40
2023-05-25T19:38:31.515Z,8.00
2023-05-25T19:41:08.382Z,8.20
2023-05-25T19:43:36.255Z,8.30
2023-05-25T19:46:04.013Z,8.80
2023-05-25T19:48:31.949Z,8.30
2023-05-25T19:51:01.038Z,7.20
2023-05-25T19:53:30.069Z,6.00
2023-05-25T19:55:57.877Z,5.10
2023-05-25T19:58:25.488Z,4.90
2023-05-25T20:00:53.281Z,6.20
2023-05-25T20:03:21.133Z,6.20
2023-05-25T20:05:49.018Z,6.40
2023-05-25T20:08:16.615Z,6.50
2023-05-25T20:10:45.242Z,5.90
2023-05-25T20:13:12.917Z,5.90
2023-05-25T20:15:40.678Z,6.20
2023-05-25T20:18:08.680Z,5.90
2023-05-25T20:20:36.477Z,6.40
2023-05-25T20:23:04.199Z,6.80
2023-05-25T20:25:31.864Z,7.00
2023-05-25T20:27:59.398Z,6.50
2023-05-25T20:30:27.006Z,7.00
2023-05-25T20:32:54.815Z,6.90
2023-05-25T20:35:22.565Z,7.00
2023-05-25T20:37:50.105Z,6.10
2023-05-25T20:40:17.737Z,5.80
2023-05-25T20:42:45.340Z,6.40
2023-05-25T20:45:12.958Z,6.20
2023-05-25T20:47:40.892Z,7.00
2023-05-25T20:50:08.624Z,6.60
2023-05-25T20:52:36.246Z,7.10
2023-05-25T20:55:04.470Z,6.40
2023-05-25T20:57:32.193Z,6.90
2023-05-25T21:00:00.109Z,6.90
2023-05-25T21:02:28.803Z,6.90
2023-05-25T21:04:56.606Z,6.00
2023-05-25T21:07:24.186Z,6.10
2023-05-25T21:09:55.101Z,5.90
2023-05-25T21:12:23.049Z,6.70
2023-05-25T21:14:50.635Z,6.70
2023-05-25T21:17:20.092Z,6.50
2023-05-25T21:19:49.207Z,7.00
2023-05-25T21:22:17.229Z,7.10
2023-05-25T21:24:44.808Z,6.90
2023-05-25T21:27:12.503Z,7.00
2023-05-25T21:29:40.613Z,6.80
2023-05-25T21:32:08.318Z,6.50
2023-05-25T21:34:36.031Z,6.40
2023-05-25T21:37:03.922Z,6.50
2023-05-25T21:39:31.496Z,7.10
2023-05-25T21:41:59.048Z,7.50
2023-05-25T21:44:27.316Z,7.30
2023-05-25T21:46:54.934Z,7.00
2023-05-25T21:49:22.581Z,7.30
2023-05-25T21:51:50.142Z,7.40
2023-05-25T21:54:17.721Z,7.40
2023-05-25T21:56:45.572Z,7.30
2023-05-25T21:59:13.268Z,7.30
2023-05-25T22:01:41.214Z,6.60
2023-05-25T22:04:08.953Z,6.30
2023-05-25T22:06:36.823Z,7.10
2023-05-25T22:09:04.638Z,7.00
2023-05-25T22:11:33.407Z,7.40
2023-05-25T22:14:03.162Z,7.00
2023-05-25T22:16:30.781Z,7.20
2023-05-25T22:18:58.717Z,7.40
2023-05-25T22:21:26.487Z,7.30
2023-05-25T22:23:54.081Z,6.30
2023-05-25T22:26:22.929Z,6.60
2023-05-25T22:28:50.475Z,6.50
2023-05-25T22:31:18.086Z,6.60
2023-05-25T22:33:45.772Z,7.00
2023-05-25T22:36:13.541Z,7.20
2023-05-25T22:38:41.305Z,7.30
2023-05-25T22:41:08.948Z,6.80
2023-05-25T22:43:36.616Z,6.50
2023-05-25T22:46:04.148Z,6.80
2023-05-25T22:48:32.088Z,7.00
2023-05-25T22:50:59.616Z,6.90
2023-05-25T22:53:27.134Z,5.90
2023-05-25T22:55:54.713Z,6.30
2023-05-25T22:58:22.312Z,6.20
2023-05-25T23:00:49.954Z,6.50
2023-05-25T23:03:17.838Z,6.00
2023-05-25T23:05:45.789Z,6.30
2023-05-25T23:08:13.801Z,6.30
2023-05-25T23:10:41.318Z,7.00
2023-05-25T23:13:09.117Z,6.90
2023-05-25T23:15:40.100Z,7.00
2023-05-25T23:18:07.790Z,7.00
2023-05-25T23:20:35.738Z,7.00
2023-05-25T23:23:03.432Z,6.60
2023-05-25T23:25:31.956Z,6.60
2023-05-25T23:27:59.483Z,7.20
2023-05-25T23:30:27.146Z,7.00
2023-05-25T23:32:54.735Z,7.60
2023-05-25T23:35:23.205Z,7.70
2023-05-25T23:37:52.231Z,7.40
2023-05-25T23:40:19.862Z,7.30
2023-05-25T23:42:47.438Z,7.80
2023-05-25T23:45:15.078Z,7.70
2023-05-25T23:47:42.688Z,7.00
2023-05-25T23:50:11.173Z,6.90
2023-05-25T23:52:38.716Z,6.50
2023-05-25T23:55:07.387Z,7.30
2023-05-25T23:57:36.642Z,7.80
